Weather History for KADC - June, 2014

Change the Weather History Date:

Friday, June 27, 2014

  Actual Average Record
Temperature  
Mean Temperature 72 °F -  
Max Temperature 80 °F 76 °F 94 °F (1936)
Min Temperature 64 °F 54 °F 42 °F (1992)
Cooling Degree Days 7    
Growing Degree Days 22 (Base 50)    
Moisture  
Dew Point 66 °F    
Average Humidity 83    
Maximum Humidity 94    
Minimum Humidity 61    
Precipitation  
Precipitation 0.45 in - - ()
Sea Level Pressure  
Sea Level Pressure 29.76 in    
Wind  
Wind Speed 10 mph (SE)    
Max Wind Speed 21 mph    
Max Gust Speed 31 mph    
Visibility 9 miles    
Events Rain , Thunderstorm    
Averages and records for this station are not official NWS values.
T = Trace of Precipitation, MM = Missing Value Source: NWS Daily Summary

Daily Weather History Graph

Daily Weather History Graph

Search for Another Location

Airport or City:

Trip Planner

Search our weather history database for the weather conditions in past years. The results will help you decide how hot, cold, wet, or windy it might be!

Date:

Astronomy

Jun. 27, 2014 Rise Set
Actual Time 5:30 AM CDT 9:17 PM CDT
Civil Twilight 4:51 AM CDT 9:56 PM CDT
Nautical Twilight 3:58 AM CDT 10:49 PM CDT
Astronomical Twilight 2:42 AM CDT 12:04 AM CDT
Moon 6:07 AM CDT (6/27) 9:16 PM CDT (6/27)
Length of Visible Light 17h 05m
Length of Day
15h 47m
New Moon, 0% of the Moon is Illuminated
Jun 27
New Moon
Jul 5
First Quarter
Jul 12
Full
Jul 18
Last Quarter
Jul 26
New

Hourly Weather History & Observations

Time (CDT) Temp. Heat Index Dew Point Humidity Pressure Visibility Wind Dir Wind Speed Gust Speed Precip Events Conditions
12:15 AM 66.2 °F - 64.4 °F 94% 29.87 in 10.0 mi ESE 4.6 mph - N/A   Overcast
12:35 AM 66.2 °F - 64.4 °F 94% 29.87 in 10.0 mi ESE 5.8 mph - N/A   Mostly Cloudy
12:53 AM 66.2 °F - 64.4 °F 94% 29.86 in 10.0 mi SE 8.1 mph - N/A   Mostly Cloudy
1:14 AM 66.2 °F - 64.4 °F 94% 29.85 in 10.0 mi ESE 6.9 mph - N/A   Mostly Cloudy
1:35 AM 64.4 °F - 62.6 °F 94% 29.84 in 10.0 mi ESE 8.1 mph - N/A   Scattered Clouds
1:53 AM 64.4 °F - 62.6 °F 94% 29.84 in 10.0 mi SE 5.8 mph - N/A   Clear
2:15 AM 64.4 °F - 62.6 °F 94% 29.83 in 10.0 mi SE 9.2 mph - N/A   Scattered Clouds
2:34 AM 66.2 °F - 64.4 °F 94% 29.82 in 10.0 mi SE 11.5 mph - N/A   Mostly Cloudy
2:53 AM 66.2 °F - 64.4 °F 94% 29.82 in 10.0 mi SE 9.2 mph - N/A   Overcast
3:35 AM 66.2 °F - 64.4 °F 94% 29.81 in 10.0 mi SE 9.2 mph - N/A   Overcast
3:53 AM 66.2 °F - 64.4 °F 94% 29.82 in 7.0 mi SE 9.2 mph - N/A   Overcast
4:15 AM 66.2 °F - 64.4 °F 94% 29.82 in 10.0 mi SSE 9.2 mph - N/A   Overcast
4:34 AM 66.2 °F - 64.4 °F 94% 29.82 in 7.0 mi SSE 9.2 mph - N/A   Overcast
4:53 AM 66.2 °F - 64.4 °F 94% 29.82 in 7.0 mi SE 10.4 mph - N/A   Overcast
5:15 AM 66.2 °F - 64.4 °F 94% 29.81 in 7.0 mi SE 8.1 mph - N/A   Overcast
5:35 AM 66.2 °F - 64.4 °F 94% 29.82 in 7.0 mi SE 9.2 mph - N/A   Overcast
5:53 AM 66.2 °F - 64.4 °F 94% 29.82 in 7.0 mi SE 10.4 mph - N/A   Overcast
6:14 AM 66.2 °F - 64.4 °F 94% 29.81 in 7.0 mi SE 9.2 mph - N/A   Overcast
6:35 AM 66.2 °F - 64.4 °F 94% 29.80 in 7.0 mi ESE 9.2 mph - N/A   Overcast
6:53 AM 68.0 °F - 64.4 °F 88% 29.80 in 7.0 mi SE 10.4 mph - N/A   Overcast
7:14 AM 68.0 °F - 64.4 °F 88% 29.79 in 7.0 mi SE 9.2 mph - N/A   Mostly Cloudy
7:35 AM 68.0 °F - 64.4 °F 88% 29.80 in 10.0 mi SSE 9.2 mph - N/A   Overcast
7:53 AM 69.8 °F - 64.4 °F 83% 29.80 in 10.0 mi SE 12.7 mph 17.3 mph N/A   Overcast
8:15 AM 69.8 °F - 64.4 °F 83% 29.80 in 10.0 mi SE 8.1 mph - N/A   Overcast
8:35 AM 69.8 °F - 64.4 °F 83% 29.80 in 10.0 mi SE 10.4 mph 17.3 mph N/A   Mostly Cloudy
8:53 AM 71.6 °F - 64.4 °F 78% 29.81 in 10.0 mi SE 11.5 mph 17.3 mph N/A   Mostly Cloudy
9:15 AM 71.6 °F - 64.4 °F 78% 29.80 in 10.0 mi SSE 13.8 mph 18.4 mph N/A   Mostly Cloudy
9:35 AM 71.6 °F - 64.4 °F 78% 29.80 in 10.0 mi SE 9.2 mph 16.1 mph N/A   Mostly Cloudy
9:53 AM 73.4 °F - 64.4 °F 73% 29.80 in 10.0 mi SE 16.1 mph 21.9 mph N/A   Mostly Cloudy
10:14 AM 73.4 °F - 64.4 °F 73% 29.80 in 10.0 mi SSE 13.8 mph 18.4 mph N/A   Scattered Clouds
10:34 AM 73.4 °F - 64.4 °F 73% 29.80 in 10.0 mi SSE 12.7 mph - N/A   Mostly Cloudy
10:53 AM 73.4 °F - 64.4 °F 73% 29.80 in 10.0 mi SSE 11.5 mph 16.1 mph N/A   Overcast
11:14 AM 73.4 °F - 64.4 °F 73% 29.79 in 10.0 mi SE 12.7 mph - N/A   Mostly Cloudy
11:35 AM 75.2 °F - 64.4 °F 69% 29.79 in 10.0 mi SE 11.5 mph - N/A   Mostly Cloudy
11:52 AM 75.2 °F - 66.2 °F 73% 29.77 in 10.0 mi SSE 13.8 mph 19.6 mph N/A   Scattered Clouds
12:14 PM 77.0 °F - 66.2 °F 69% 29.77 in 10.0 mi SE 16.1 mph 21.9 mph N/A   Scattered Clouds
12:34 PM 75.2 °F - 64.4 °F 69% 29.76 in 10.0 mi SE 16.1 mph - N/A   Mostly Cloudy
1:15 PM 77.0 °F - 66.2 °F 69% 29.75 in 10.0 mi SE 15.0 mph 21.9 mph N/A   Scattered Clouds
1:35 PM 78.8 °F - 66.2 °F 65% 29.75 in 10.0 mi ESE 20.7 mph 24.2 mph N/A   Scattered Clouds
2:15 PM 77.0 °F - 66.2 °F 69% 29.75 in 10.0 mi SE 16.1 mph - N/A   Overcast
2:35 PM 77.0 °F - 66.2 °F 69% 29.74 in 10.0 mi SE 17.3 mph - N/A   Mostly Cloudy
2:52 PM 78.8 °F - 66.2 °F 65% 29.73 in 10.0 mi SE 16.1 mph 23.0 mph N/A   Mostly Cloudy
3:35 PM 78.8 °F - 66.2 °F 65% 29.72 in 10.0 mi SSE 19.6 mph 23.0 mph N/A   Scattered Clouds
3:53 PM 78.8 °F - 66.2 °F 65% 29.73 in 10.0 mi SSE 19.6 mph 25.3 mph N/A   Scattered Clouds
4:14 PM 78.8 °F - 66.2 °F 65% 29.72 in 10.0 mi SSE 12.7 mph 20.7 mph N/A   Mostly Cloudy
4:35 PM 80.6 °F 82.7 °F 66.2 °F 61% 29.71 in 10.0 mi SSE 17.3 mph 23.0 mph N/A   Scattered Clouds
4:53 PM 78.8 °F - 66.2 °F 65% 29.71 in 10.0 mi SE 19.6 mph 24.2 mph N/A   Mostly Cloudy
5:14 PM 78.8 °F - 66.2 °F 65% 29.72 in 10.0 mi SSE 13.8 mph 25.3 mph N/A   Mostly Cloudy
5:34 PM 77.0 °F - 66.2 °F 69% 29.72 in 10.0 mi SSE 13.8 mph - N/A   Mostly Cloudy
5:48 PM 71.6 °F - 66.2 °F 83% 29.75 in 2.0 mi SSE 18.4 mph 31.1 mph N/A   Overcast
5:51 PM 69.8 °F - 64.4 °F 83% 29.74 in 1.0 mi SSE 18.4 mph 31.1 mph 0.23 in Rain , Thunderstorm Heavy Thunderstorms and Rain
6:15 PM 68.0 °F - 66.2 °F 94% 29.73 in 10.0 mi SSE 6.9 mph - 0.01 in Rain , Thunderstorm Light Thunderstorms and Rain
6:35 PM 69.8 °F - 68.0 °F 94% 29.71 in 10.0 mi ESE 4.6 mph - 0.01 in Rain Light Rain
6:53 PM 71.6 °F - 69.8 °F 94% 29.71 in 10.0 mi SE 8.1 mph - 0.01 in   Scattered Clouds
7:15 PM 71.6 °F - 69.8 °F 94% 29.70 in 10.0 mi SE 13.8 mph 17.3 mph N/A   Scattered Clouds
7:34 PM 73.4 °F - 69.8 °F 88% 29.69 in 10.0 mi SE 12.7 mph - N/A   Clear
7:53 PM 71.6 °F - 69.8 °F 94% 29.68 in 10.0 mi ESE 9.2 mph - N/A   Clear
8:15 PM 71.6 °F - 68.0 °F 88% 29.68 in 10.0 mi ESE 9.2 mph - N/A   Scattered Clouds
8:35 PM 71.6 °F - 68.0 °F 88% 29.68 in 10.0 mi ESE 9.2 mph - N/A   Scattered Clouds
8:53 PM 71.6 °F - 68.0 °F 88% 29.68 in 10.0 mi ESE 10.4 mph - N/A Rain Light Rain
9:04 PM 71.6 °F - 68.0 °F 88% 29.68 in 10.0 mi ESE 8.1 mph - N/A   Light Drizzle
9:35 PM 69.8 °F - 66.2 °F 88% 29.68 in 7.0 mi SE 10.4 mph - 0.21 in Rain Heavy Rain
9:53 PM 69.8 °F - 66.2 °F 88% 29.67 in 10.0 mi ESE 15.0 mph 20.7 mph 0.21 in Rain Rain
10:15 PM 69.8 °F - 66.2 °F 88% 29.68 in 10.0 mi SSE 10.4 mph 16.1 mph N/A Rain Light Rain
10:35 PM 69.8 °F - 66.2 °F 88% 29.69 in 10.0 mi SSE 10.4 mph - N/A   Mostly Cloudy
10:52 PM 69.8 °F - 66.2 °F 88% 29.69 in 10.0 mi SE 9.2 mph - N/A   Mostly Cloudy
11:14 PM 69.8 °F - 66.2 °F 88% 29.69 in 10.0 mi SSE 9.2 mph - N/A   Overcast
11:35 PM 69.8 °F - 66.2 °F 88% 29.69 in 10.0 mi SSE 11.5 mph - N/A   Overcast
11:53 PM 69.8 °F - 66.2 °F 88% 29.70 in 10.0 mi SSE 12.7 mph - N/A   Overcast